createdAt,value
2023-04-19T00:00:17.644Z,101357.42
2023-04-19T00:02:44.735Z,101354.52
2023-04-19T00:05:13.847Z,101355.85
2023-04-19T00:07:40.930Z,101351.73
2023-04-19T00:10:08.363Z,101350.83
2023-04-19T00:12:36.120Z,101349.71
2023-04-19T00:15:03.083Z,101342.25
2023-04-19T00:17:30.014Z,101341.92
2023-04-19T00:19:57.039Z,101337.59
2023-04-19T00:22:23.979Z,101336.08
2023-04-19T00:24:51.090Z,101336.77
2023-04-19T00:27:18.087Z,101333.41
2023-04-19T00:29:45.090Z,101335.70
2023-04-19T00:32:11.986Z,101333.75
2023-04-19T00:34:38.890Z,101328.34
2023-04-19T00:37:05.853Z,101334.32
2023-04-19T00:39:33.293Z,101332.16
2023-04-19T00:42:00.238Z,101331.10
2023-04-19T00:44:27.736Z,101330.89
2023-04-19T00:46:56.471Z,101329.67
2023-04-19T00:49:24.798Z,101329.77
2023-04-19T00:51:52.076Z,101330.19
2023-04-19T00:54:19.948Z,101329.98
2023-04-19T00:56:49.458Z,101327.49
2023-04-19T00:59:17.491Z,101328.66
2023-04-19T01:01:44.547Z,101326.86
2023-04-19T01:04:11.754Z,101326.13
2023-04-19T01:06:41.550Z,101325.16
2023-04-19T01:09:11.095Z,101318.29
2023-04-19T01:11:43.239Z,101317.48
2023-04-19T01:14:10.705Z,101315.44
2023-04-19T01:16:39.271Z,101314.58
2023-04-19T01:19:06.668Z,101309.76
2023-04-19T01:21:34.031Z,101305.27
2023-04-19T01:24:01.044Z,101302.83
2023-04-19T01:26:27.975Z,101297.27
2023-04-19T01:28:54.933Z,101295.05
2023-04-19T01:31:21.986Z,101295.85
2023-04-19T01:33:48.951Z,101294.34
2023-04-19T01:36:15.920Z,101292.60
2023-04-19T01:38:42.906Z,101289.05
2023-04-19T01:41:10.001Z,101282.59
2023-04-19T01:43:36.956Z,101280.64
2023-04-19T01:46:03.894Z,101282.17
2023-04-19T01:48:31.210Z,101283.56
2023-04-19T01:50:58.119Z,101283.97
2023-04-19T01:53:25.048Z,101282.98
2023-04-19T01:55:52.083Z,101283.83
2023-04-19T01:58:20.691Z,101281.85
2023-04-19T02:00:47.726Z,101282.93
2023-04-19T02:03:14.974Z,101283.61
2023-04-19T02:05:42.731Z,101279.67
2023-04-19T02:08:09.569Z,101280.41
2023-04-19T02:10:36.736Z,101279.75
2023-04-19T02:13:03.765Z,101274.40
2023-04-19T02:15:30.816Z,101273.61
2023-04-19T02:18:00.401Z,101270.84
2023-04-19T02:20:27.776Z,101267.89
2023-04-19T02:22:54.725Z,101264.30
2023-04-19T02:25:22.180Z,101266.70
2023-04-19T02:27:49.234Z,101259.42
2023-04-19T02:30:18.205Z,101258.61
2023-04-19T02:32:45.294Z,101257.80
2023-04-19T02:35:12.902Z,101258.95
2023-04-19T02:37:40.187Z,101259.20
2023-04-19T02:40:08.152Z,101261.67
2023-04-19T02:42:35.238Z,101261.45
2023-04-19T02:45:02.310Z,101264.94
2023-04-19T02:47:29.303Z,101268.05
2023-04-19T02:49:56.337Z,101268.56
2023-04-19T02:52:23.597Z,101269.34
2023-04-19T02:54:50.637Z,101268.27
2023-04-19T02:57:17.796Z,101271.30
2023-04-19T02:59:45.762Z,101268.50
2023-04-19T03:02:13.118Z,101272.58
2023-04-19T03:04:40.513Z,101271.98
2023-04-19T03:07:09.252Z,101279.21
2023-04-19T03:09:36.737Z,101282.59
2023-04-19T03:12:04.778Z,101288.98
2023-04-19T03:14:34.011Z,101287.49
2023-04-19T03:17:01.855Z,101287.16
2023-04-19T03:19:30.131Z,101291.70
2023-04-19T03:21:57.119Z,101290.33
2023-04-19T03:24:29.357Z,101288.31
2023-04-19T03:26:57.505Z,101286.62
2023-04-19T03:29:27.014Z,101286.72
2023-04-19T03:32:01.017Z,101287.35
2023-04-19T03:34:28.754Z,101287.66
2023-04-19T03:36:56.353Z,101287.92
2023-04-19T03:39:23.388Z,101291.74
2023-04-19T03:41:53.104Z,101293.65
2023-04-19T03:44:24.240Z,101292.96
2023-04-19T03:46:51.598Z,101293.34
2023-04-19T03:49:22.025Z,101288.46
2023-04-19T03:51:53.815Z,101288.96
2023-04-19T03:54:21.179Z,101290.60
2023-04-19T03:56:48.284Z,101291.55
2023-04-19T03:59:15.865Z,101294.40
2023-04-19T04:01:43.530Z,101286.34
2023-04-19T04:04:12.256Z,101287.14
2023-04-19T04:06:39.434Z,101289.80
2023-04-19T04:09:07.824Z,101291.45
2023-04-19T04:11:35.267Z,101292.02
2023-04-19T04:14:02.622Z,101289.20
2023-04-19T04:16:31.859Z,101286.45
2023-04-19T04:18:58.978Z,101285.56
2023-04-19T04:21:27.430Z,101286.81
2023-04-19T04:23:56.343Z,101286.23
2023-04-19T04:26:42.639Z,101290.55
2023-04-19T04:29:16.964Z,101284.63
2023-04-19T04:31:45.167Z,101284.77
2023-04-19T04:36:49.899Z,101286.98
2023-04-19T04:39:18.477Z,101287.19
2023-04-19T04:41:46.603Z,101291.05
2023-04-19T04:44:13.600Z,101292.52
2023-04-19T04:46:41.874Z,101296.79
2023-04-19T04:49:12.599Z,101305.70
2023-04-19T04:51:41.911Z,101311.00
2023-04-19T04:54:09.987Z,101312.48
2023-04-19T04:56:37.397Z,101314.31
2023-04-19T04:59:04.607Z,101318.06
2023-04-19T05:01:35.584Z,101320.49
2023-04-19T05:04:02.727Z,101325.95
2023-04-19T05:06:29.719Z,101322.23
2023-04-19T05:08:56.975Z,101323.47
2023-04-19T05:11:33.592Z,101325.05
2023-04-19T05:14:01.078Z,101322.01
2023-04-19T05:16:28.267Z,101321.98
2023-04-19T05:18:55.709Z,101325.46
2023-04-19T05:21:23.530Z,101325.10
2023-04-19T05:23:53.694Z,101328.98
2023-04-19T05:26:21.101Z,101330.65
2023-04-19T05:28:48.542Z,101335.75
2023-04-19T05:31:41.522Z,101334.27
2023-04-19T05:34:13.196Z,101331.59
2023-04-19T05:36:40.406Z,101332.34
2023-04-19T05:39:07.483Z,101334.61
2023-04-19T05:41:34.479Z,101337.38
2023-04-19T05:44:01.918Z,101340.08
2023-04-19T05:46:29.064Z,101340.48
2023-04-19T05:48:56.545Z,101339.33
2023-04-19T05:51:42.189Z,101344.73
2023-04-19T05:54:25.593Z,101343.30
2023-04-19T05:56:53.305Z,101343.11
2023-04-19T05:59:20.436Z,101343.84
2023-04-19T06:01:47.690Z,101342.93
2023-04-19T06:04:14.760Z,101345.08
2023-04-19T06:06:42.729Z,101345.52
2023-04-19T06:09:09.667Z,101345.50
2023-04-19T06:11:47.021Z,101346.55
2023-04-19T06:14:18.101Z,101344.67
2023-04-19T06:16:45.569Z,101346.68
2023-04-19T06:19:12.734Z,101346.38
2023-04-19T06:21:39.629Z,101350.02
2023-04-19T06:24:07.712Z,101344.48
2023-04-19T06:26:34.806Z,101346.92
2023-04-19T06:29:01.851Z,101345.08
2023-04-19T06:31:29.125Z,101342.77
2023-04-19T06:33:56.170Z,101343.09
2023-04-19T06:36:23.144Z,101345.91
2023-04-19T06:38:50.523Z,101344.78
2023-04-19T06:41:18.049Z,101346.71
2023-04-19T06:43:45.165Z,101344.39
2023-04-19T06:46:14.645Z,101347.74
2023-04-19T06:48:42.290Z,101345.11
2023-04-19T06:51:10.160Z,101347.17
2023-04-19T06:53:38.385Z,101348.81
2023-04-19T06:56:05.905Z,101349.31
2023-04-19T06:58:34.443Z,101350.79
2023-04-19T07:01:04.777Z,101351.27
2023-04-19T07:03:33.972Z,101351.06
2023-04-19T07:06:01.259Z,101352.60
2023-04-19T07:08:42.521Z,101354.51
2023-04-19T07:11:16.026Z,101356.20
2023-04-19T07:13:43.636Z,101357.69
2023-04-19T07:16:13.450Z,101357.89
2023-04-19T07:18:40.861Z,101362.62
2023-04-19T07:21:07.801Z,101365.64
2023-04-19T07:23:34.771Z,101367.83
2023-04-19T07:26:02.813Z,101370.10
2023-04-19T07:28:30.061Z,101374.14
2023-04-19T07:30:57.815Z,101375.31
2023-04-19T07:33:27.967Z,101376.50
2023-04-19T07:35:55.300Z,101378.31
2023-04-19T07:38:22.674Z,101378.55
2023-04-19T07:40:50.083Z,101380.63
2023-04-19T07:43:17.073Z,101381.70
2023-04-19T07:45:43.947Z,101390.19
2023-04-19T07:48:11.275Z,101393.06
2023-04-19T07:50:38.252Z,101397.57
2023-04-19T07:53:05.347Z,101396.06
2023-04-19T07:55:32.796Z,101394.48
2023-04-19T07:58:02.295Z,101399.27
2023-04-19T08:00:37.061Z,101395.30
2023-04-19T08:03:05.859Z,101399.59
2023-04-19T08:05:34.100Z,101403.32
2023-04-19T08:08:01.206Z,101403.02
2023-04-19T08:10:29.153Z,101401.52
2023-04-19T08:13:04.367Z,101397.72
2023-04-19T08:18:07.431Z,101403.09
2023-04-19T08:20:36.937Z,101398.07
2023-04-19T08:23:18.054Z,101399.66
2023-04-19T08:25:49.675Z,101400.73
2023-04-19T08:28:17.919Z,101403.27
2023-04-19T08:30:45.019Z,101406.87
2023-04-19T08:33:12.073Z,101409.96
2023-04-19T08:35:41.542Z,101410.72
2023-04-19T08:38:09.166Z,101410.92
2023-04-19T08:40:44.945Z,101408.59
2023-04-19T08:43:12.294Z,101409.45
2023-04-19T08:45:39.703Z,101412.83
2023-04-19T08:48:11.839Z,101418.80
2023-04-19T08:50:55.868Z,101417.18
2023-04-19T08:53:33.441Z,101415.17
2023-04-19T09:01:09.859Z,101417.30
2023-04-19T09:03:59.466Z,101412.54
2023-04-19T09:06:30.139Z,101411.80
2023-04-19T09:09:33.243Z,101406.52
2023-04-19T09:12:03.158Z,101412.61
2023-04-19T09:14:30.314Z,101413.02
2023-04-19T09:17:17.678Z,101412.13
2023-04-19T09:19:49.498Z,101407.68
2023-04-19T09:22:16.956Z,101408.97
2023-04-19T09:27:19.361Z,101402.40
2023-04-19T09:29:54.459Z,101401.08
2023-04-19T09:32:22.028Z,101401.08
2023-04-19T09:35:00.159Z,101398.75
2023-04-19T09:39:57.192Z,101391.33
2023-04-19T09:42:45.355Z,101388.80
2023-04-19T09:47:41.592Z,101387.00
2023-04-19T09:50:21.733Z,101390.50
2023-04-19T09:52:51.042Z,101386.84
2023-04-19T09:57:49.318Z,101385.69
2023-04-19T10:00:16.552Z,101386.21
2023-04-19T10:02:45.220Z,101383.09
2023-04-19T10:05:20.280Z,101381.92
2023-04-19T10:07:50.227Z,101380.98
2023-04-19T10:10:20.995Z,101376.09
2023-04-19T10:15:24.447Z,101373.08
2023-04-19T10:17:51.535Z,101373.36
2023-04-19T10:20:25.167Z,101372.89
2023-04-19T10:22:52.612Z,101370.15
2023-04-19T10:25:29.927Z,101371.31
2023-04-19T10:27:58.032Z,101372.27
2023-04-19T10:30:28.498Z,101363.54
2023-04-19T10:32:58.277Z,101366.02
2023-04-19T10:35:29.780Z,101368.04
2023-04-19T10:38:13.260Z,101366.17
2023-04-19T10:40:52.628Z,101367.23
2023-04-19T10:43:20.935Z,101368.59
2023-04-19T10:45:48.351Z,101368.48
2023-04-19T10:48:30.606Z,101367.66
2023-04-19T10:51:14.716Z,101368.04
2023-04-19T10:53:54.648Z,101367.45
2023-04-19T10:56:59.039Z,101372.48
2023-04-19T10:59:26.789Z,101374.27
2023-04-19T11:01:56.998Z,101374.04
2023-04-19T11:04:30.942Z,101378.73
2023-04-19T11:07:07.389Z,101378.73
2023-04-19T11:09:39.291Z,101382.31
2023-04-19T11:12:08.954Z,101382.91
2023-04-19T11:14:39.794Z,101382.65
2023-04-19T11:17:28.021Z,101381.56
2023-04-19T11:19:57.214Z,101375.98
2023-04-19T11:22:33.502Z,101373.14
2023-04-19T11:25:21.407Z,101369.70
2023-04-19T11:27:53.729Z,101368.19
2023-04-19T11:30:23.195Z,101370.79
2023-04-19T11:32:53.735Z,101367.83
2023-04-19T11:35:22.957Z,101371.07
2023-04-19T11:37:50.207Z,101359.73
2023-04-19T11:40:19.568Z,101355.98
2023-04-19T11:42:47.179Z,101356.30
2023-04-19T11:45:35.584Z,101352.29
2023-04-19T11:48:07.422Z,101349.95
2023-04-19T11:50:44.236Z,101354.09
2023-04-19T11:53:20.716Z,101350.83
2023-04-19T11:55:53.414Z,101347.11
2023-04-19T11:58:36.397Z,101344.05
2023-04-19T12:01:14.232Z,101342.19
2023-04-19T12:03:43.443Z,101340.61
2023-04-19T12:06:16.284Z,101337.13
2023-04-19T12:08:47.378Z,101337.75
2023-04-19T12:11:15.466Z,101333.73
2023-04-19T12:13:44.491Z,101331.04
2023-04-19T12:16:14.577Z,101327.08
2023-04-19T12:18:52.102Z,101321.89
2023-04-19T12:21:31.202Z,101323.27
2023-04-19T12:24:00.035Z,101320.10
2023-04-19T12:26:28.773Z,101318.08
2023-04-19T12:28:56.942Z,101316.60
2023-04-19T12:31:24.173Z,101313.91
2023-04-19T12:33:51.251Z,101314.29
2023-04-19T12:36:19.332Z,101312.11
2023-04-19T12:38:46.303Z,101310.91
2023-04-19T12:41:13.250Z,101310.31
2023-04-19T12:43:40.194Z,101308.40
2023-04-19T12:46:07.159Z,101305.42
2023-04-19T12:48:34.189Z,101304.39
2023-04-19T12:51:01.241Z,101300.05
2023-04-19T12:53:28.278Z,101298.16
2023-04-19T12:55:55.179Z,101295.02
2023-04-19T12:58:23.024Z,101292.86
2023-04-19T13:00:50.135Z,101285.91
2023-04-19T13:03:17.150Z,101279.83
2023-04-19T13:05:44.229Z,101277.44
2023-04-19T13:08:11.095Z,101268.41
2023-04-19T13:10:38.565Z,101269.85
2023-04-19T13:13:05.578Z,101262.08
2023-04-19T13:15:32.459Z,101259.77
2023-04-19T13:17:59.657Z,101259.97
2023-04-19T13:20:26.706Z,101256.43
2023-04-19T13:22:53.601Z,101259.08
2023-04-19T13:25:20.852Z,101256.69
2023-04-19T13:27:47.967Z,101256.84
2023-04-19T13:30:15.521Z,101257.22
2023-04-19T13:32:43.429Z,101254.95
2023-04-19T13:35:10.641Z,101255.10
2023-04-19T13:37:40.564Z,101255.25
2023-04-19T13:40:18.946Z,101251.77
2023-04-19T13:42:47.103Z,101247.42
2023-04-19T13:45:14.347Z,101246.05
2023-04-19T13:47:41.592Z,101242.82
2023-04-19T13:50:09.944Z,101238.80
2023-04-19T13:52:38.705Z,101236.63
2023-04-19T13:55:06.080Z,101240.96
2023-04-19T13:57:32.965Z,101232.13
2023-04-19T14:00:00.999Z,101233.87
2023-04-19T14:02:28.752Z,101230.45
2023-04-19T14:04:59.045Z,101224.64
2023-04-19T14:07:26.076Z,101221.41
2023-04-19T14:09:53.074Z,101218.56
2023-04-19T14:12:20.122Z,101213.36
2023-04-19T14:14:47.067Z,101212.77
2023-04-19T14:17:13.979Z,101205.85
2023-04-19T14:19:41.102Z,101214.63
2023-04-19T14:22:08.101Z,101214.83
2023-04-19T14:24:35.271Z,101210.64
2023-04-19T14:29:32.012Z,101205.81
2023-04-19T14:32:05.106Z,101203.95
2023-04-19T14:34:38.093Z,101205.11
2023-04-19T14:37:05.138Z,101201.56
2023-04-19T14:39:33.117Z,101203.05
2023-04-19T14:42:00.356Z,101201.39
2023-04-19T14:44:27.402Z,101204.95
2023-04-19T14:46:54.343Z,101201.61
2023-04-19T14:49:21.260Z,101199.07
2023-04-19T14:51:48.240Z,101203.04
2023-04-19T14:54:15.569Z,101200.86
2023-04-19T14:56:42.732Z,101202.75
2023-04-19T14:59:10.399Z,101204.28
2023-04-19T15:01:37.463Z,101207.09
2023-04-19T15:04:05.041Z,101202.42
2023-04-19T15:06:33.510Z,101201.73
2023-04-19T15:09:00.532Z,101198.67
2023-04-19T15:11:28.088Z,101196.24
2023-04-19T15:13:55.173Z,101201.39
2023-04-19T15:16:22.139Z,101199.21
2023-04-19T15:18:49.464Z,101193.80
2023-04-19T15:21:19.457Z,101191.36
2023-04-19T15:23:46.639Z,101190.85
2023-04-19T15:26:13.762Z,101191.75
2023-04-19T15:28:41.941Z,101193.61
2023-04-19T15:31:09.824Z,101191.13
2023-04-19T15:33:39.171Z,101187.90
2023-04-19T15:36:08.702Z,101183.86
2023-04-19T15:38:36.172Z,101183.30
2023-04-19T15:41:04.346Z,101184.98
2023-04-19T15:43:31.702Z,101188.33
2023-04-19T15:45:58.844Z,101189.55
2023-04-19T15:48:26.396Z,101184.02
2023-04-19T15:50:53.345Z,101182.45
2023-04-19T15:53:20.290Z,101178.27
2023-04-19T15:55:48.178Z,101180.32
2023-04-19T15:58:16.128Z,101182.55
2023-04-19T16:00:43.378Z,101181.41
2023-04-19T16:03:12.835Z,101183.17
2023-04-19T16:05:40.276Z,101177.77
2023-04-19T16:08:19.289Z,101178.73
2023-04-19T16:10:48.100Z,101177.89
2023-04-19T16:13:16.057Z,101174.66
2023-04-19T16:15:44.102Z,101174.70
2023-04-19T16:18:11.463Z,101171.42
2023-04-19T16:20:40.144Z,101169.31
2023-04-19T16:23:07.591Z,101165.94
2023-04-19T16:25:34.945Z,101168.73
2023-04-19T16:28:03.743Z,101169.84
2023-04-19T16:30:31.066Z,101169.54
2023-04-19T16:32:58.830Z,101168.41
2023-04-19T16:35:26.936Z,101170.90
2023-04-19T16:37:56.757Z,101170.84
2023-04-19T16:40:25.033Z,101171.27
2023-04-19T16:42:52.166Z,101168.89
2023-04-19T16:45:19.154Z,101167.30
2023-04-19T16:47:46.479Z,101163.23
2023-04-19T16:50:14.641Z,101161.91
2023-04-19T16:52:41.892Z,101161.10
2023-04-19T16:55:09.490Z,101160.84
2023-04-19T16:57:37.417Z,101160.36
2023-04-19T17:00:06.337Z,101164.76
2023-04-19T17:02:34.145Z,101161.31
2023-04-19T17:05:02.045Z,101155.55
2023-04-19T17:07:29.231Z,101151.79
2023-04-19T17:09:56.497Z,101148.66
2023-04-19T17:12:25.330Z,101143.62
2023-04-19T17:14:52.224Z,101143.27
2023-04-19T17:17:20.174Z,101143.36
2023-04-19T17:19:50.209Z,101140.81
2023-04-19T17:22:19.776Z,101140.12
2023-04-19T17:24:46.750Z,101140.98
2023-04-19T17:27:14.180Z,101140.19
2023-04-19T17:29:41.422Z,101134.20
2023-04-19T17:32:11.374Z,101133.57
2023-04-19T17:34:38.431Z,101122.71
2023-04-19T17:37:05.453Z,101124.48
2023-04-19T17:39:32.552Z,101123.27
2023-04-19T17:41:59.509Z,101122.80
2023-04-19T17:44:26.974Z,101119.79
2023-04-19T17:46:54.158Z,101121.23
2023-04-19T17:49:22.300Z,101119.84
2023-04-19T17:51:49.347Z,101121.16
2023-04-19T17:54:19.568Z,101120.80
2023-04-19T17:56:47.821Z,101118.89
2023-04-19T17:59:14.955Z,101123.60
2023-04-19T18:01:44.269Z,101125.83
2023-04-19T18:04:17.492Z,101122.76
2023-04-19T18:06:47.081Z,101128.10
2023-04-19T18:09:19.615Z,101130.19
2023-04-19T18:11:51.057Z,101131.63
2023-04-19T18:14:19.274Z,101135.44
2023-04-19T18:16:46.124Z,101137.39
2023-04-19T18:19:13.091Z,101139.73
2023-04-19T18:21:40.070Z,101142.27
2023-04-19T18:24:07.102Z,101146.01
2023-04-19T18:26:41.385Z,101147.91
2023-04-19T18:29:09.879Z,101150.59
2023-04-19T18:31:36.959Z,101154.42
2023-04-19T18:34:04.281Z,101159.83
2023-04-19T18:36:32.222Z,101161.64
2023-04-19T18:38:59.578Z,101162.31
2023-04-19T18:41:26.569Z,101159.25
2023-04-19T18:44:25.814Z,101153.59
2023-04-19T18:46:41.730Z,101154.11
2023-04-19T18:49:08.889Z,101150.83
2023-04-19T18:51:36.971Z,101154.63
2023-04-19T18:54:04.022Z,101156.90
2023-04-19T18:57:10.057Z,101156.48
2023-04-19T18:59:18.316Z,101162.98
2023-04-19T19:01:46.226Z,101164.77
2023-04-19T19:04:42.952Z,101167.45
2023-04-19T19:07:22.940Z,101172.90
2023-04-19T19:09:56.698Z,101172.21
2023-04-19T19:12:24.024Z,101169.84
2023-04-19T19:14:51.226Z,101169.14
2023-04-19T19:17:18.381Z,101165.70
2023-04-19T19:19:45.293Z,101165.19
2023-04-19T19:22:25.095Z,101164.88
2023-04-19T19:24:55.071Z,101167.84
2023-04-19T19:27:22.176Z,101168.17
2023-04-19T19:29:49.118Z,101168.86
2023-04-19T19:32:19.577Z,101167.23
2023-04-19T19:34:55.684Z,101165.16
2023-04-19T19:37:27.988Z,101167.06
2023-04-19T19:39:56.705Z,101165.33
2023-04-19T19:42:27.689Z,101167.19
2023-04-19T19:44:55.651Z,101162.20
2023-04-19T19:47:25.286Z,101159.23
2023-04-19T19:50:41.060Z,101158.39
2023-04-19T19:52:42.282Z,101160.73
2023-04-19T19:55:12.498Z,101162.65
2023-04-19T20:02:54.312Z,101164.05
2023-04-19T20:05:24.069Z,101155.42
2023-04-19T20:10:21.491Z,101157.00
2023-04-19T20:12:48.470Z,101154.10
2023-04-19T20:15:15.496Z,101159.23
2023-04-19T20:17:44.437Z,101160.86
2023-04-19T20:20:12.284Z,101157.24
2023-04-19T20:22:39.220Z,101150.94
2023-04-19T20:25:07.081Z,101152.94
2023-04-19T20:27:34.188Z,101155.32
2023-04-19T20:30:01.190Z,101155.73
2023-04-19T20:32:28.310Z,101154.45
2023-04-19T20:34:56.345Z,101152.91
2023-04-19T20:37:23.599Z,101155.51
2023-04-19T20:39:50.574Z,101153.81
2023-04-19T20:42:17.822Z,101151.85
2023-04-19T20:44:44.688Z,101154.17
2023-04-19T20:47:13.429Z,101148.50
2023-04-19T20:49:41.054Z,101148.13
2023-04-19T20:52:08.124Z,101147.92
2023-04-19T20:54:36.880Z,101139.71
2023-04-19T20:57:04.930Z,101133.30
2023-04-19T20:59:32.576Z,101130.98
2023-04-19T21:02:00.355Z,101124.25
2023-04-19T21:04:27.687Z,101130.33
2023-04-19T21:06:55.415Z,101134.05
2023-04-19T21:09:23.128Z,101134.50
2023-04-19T21:11:50.256Z,101137.58
2023-04-19T21:14:17.949Z,101135.19
2023-04-19T21:16:45.243Z,101127.67
2023-04-19T21:19:12.152Z,101126.71
2023-04-19T21:21:39.239Z,101131.90
2023-04-19T21:24:07.902Z,101132.69
2023-04-19T21:26:34.784Z,101143.00
2023-04-19T21:29:01.962Z,101150.16
2023-04-19T21:31:28.975Z,101152.44
2023-04-19T21:33:55.897Z,101151.23
2023-04-19T21:36:22.894Z,101153.76
2023-04-19T21:38:49.851Z,101154.55
2023-04-19T21:41:16.792Z,101153.39
2023-04-19T21:43:43.687Z,101146.88
2023-04-19T21:46:10.932Z,101146.38
2023-04-19T21:48:37.922Z,101146.88
2023-04-19T21:51:05.217Z,101150.82
2023-04-19T21:53:32.525Z,101148.00
2023-04-19T21:55:59.628Z,101146.95
2023-04-19T21:58:26.500Z,101147.14
2023-04-19T22:00:53.938Z,101146.02
2023-04-19T22:03:21.171Z,101143.73
2023-04-19T22:05:48.223Z,101136.06
2023-04-19T22:08:18.165Z,101125.30
2023-04-19T22:10:46.499Z,101122.39
2023-04-19T22:13:14.103Z,101123.88
2023-04-19T22:15:41.123Z,101119.70
2023-04-19T22:18:08.837Z,101114.51
2023-04-19T22:20:35.805Z,101110.05
2023-04-19T22:23:02.788Z,101100.30
2023-04-19T22:25:29.976Z,101090.92
2023-04-19T22:27:56.910Z,101093.46
2023-04-19T22:30:23.898Z,101100.34
2023-04-19T22:32:51.251Z,101096.52
2023-04-19T22:35:19.112Z,101096.58
2023-04-19T22:37:47.649Z,101091.23
2023-04-19T22:40:14.625Z,101095.93
2023-04-19T22:42:41.522Z,101100.91
2023-04-19T22:45:09.333Z,101096.94
2023-04-19T22:47:38.037Z,101097.46
2023-04-19T22:50:05.360Z,101102.54
2023-04-19T22:52:32.316Z,101104.40
2023-04-19T22:54:59.262Z,101094.91
2023-04-19T22:57:26.153Z,101091.22
2023-04-19T22:59:53.119Z,101072.64
2023-04-19T23:02:20.476Z,101055.86
2023-04-19T23:04:49.196Z,101038.23
2023-04-19T23:07:16.343Z,101026.48
2023-04-19T23:09:43.271Z,101034.64
2023-04-19T23:12:10.258Z,101041.85
2023-04-19T23:14:38.986Z,101034.59
2023-04-19T23:17:06.304Z,101022.36
2023-04-19T23:19:33.354Z,101020.09
2023-04-19T23:22:00.257Z,101028.39
2023-04-19T23:24:27.184Z,101047.34
2023-04-19T23:26:54.120Z,101056.77
2023-04-19T23:29:21.032Z,101063.17
2023-04-19T23:31:48.113Z,101059.77
2023-04-19T23:34:15.218Z,101064.97
2023-04-19T23:36:42.141Z,101061.36
2023-04-19T23:39:09.346Z,101049.77
2023-04-19T23:41:36.489Z,101043.78
2023-04-19T23:44:03.797Z,101037.31
2023-04-19T23:46:31.122Z,101036.64
2023-04-19T23:48:57.984Z,101040.59
2023-04-19T23:51:24.928Z,101048.05
2023-04-19T23:53:51.863Z,101047.11
2023-04-19T23:56:18.750Z,101032.91
2023-04-19T23:58:45.781Z,101019.03
